sensor_id;sensor_type;location;lat;lon;timestamp;temperature;humidity
16158;DHT22;8184;60.256;18.694;2023-06-26T00:02:10;14.30;99.90
16158;DHT22;8184;60.256;18.694;2023-06-26T00:04:41;14.20;99.90
16158;DHT22;8184;60.256;18.694;2023-06-26T00:07:09;14.10;99.90
16158;DHT22;8184;60.256;18.694;2023-06-26T00:09:39;14.20;99.90
16158;DHT22;8184;60.256;18.694;2023-06-26T00:12:07;14.20;99.90
16158;DHT22;8184;60.256;18.694;2023-06-26T00:14:36;14.30;99.90
16158;DHT22;8184;60.256;18.694;2023-06-26T00:17:04;14.10;99.90
16158;DHT22;8184;60.256;18.694;2023-06-26T00:19:33;14.00;99.90
16158;DHT22;8184;60.256;18.694;2023-06-26T00:22:06;14.00;99.90
16158;DHT22;8184;60.256;18.694;2023-06-26T00:24:34;14.00;99.90
16158;DHT22;8184;60.256;18.694;2023-06-26T00:27:02;13.90;99.90
16158;DHT22;8184;60.256;18.694;2023-06-26T00:29:40;14.00;99.90
16158;DHT22;8184;60.256;18.694;2023-06-26T00:32:10;14.00;99.90
16158;DHT22;8184;60.256;18.694;2023-06-26T00:34:38;13.90;99.90
16158;DHT22;8184;60.256;18.694;2023-06-26T00:37:08;14.00;99.90
16158;DHT22;8184;60.256;18.694;2023-06-26T00:39:36;13.90;99.90
16158;DHT22;8184;60.256;18.694;2023-06-26T00:42:05;14.00;99.90
16158;DHT22;8184;60.256;18.694;2023-06-26T00:44:35;13.90;99.90
16158;DHT22;8184;60.256;18.694;2023-06-26T00:47:03;13.90;99.90
16158;DHT22;8184;60.256;18.694;2023-06-26T00:49:32;13.90;99.90
16158;DHT22;8184;60.256;18.694;2023-06-26T00:52:00;13.80;99.90
16158;DHT22;8184;60.256;18.694;2023-06-26T00:54:31;13.80;99.90
16158;DHT22;8184;60.256;18.694;2023-06-26T00:57:00;13.80;99.90
16158;DHT22;8184;60.256;18.694;2023-06-26T00:59:28;13.70;99.90
16158;DHT22;8184;60.256;18.694;2023-06-26T01:01:57;13.80;99.90
16158;DHT22;8184;60.256;18.694;2023-06-26T01:04:25;13.70;99.90
16158;DHT22;8184;60.256;18.694;2023-06-26T01:06:54;13.70;99.90
16158;DHT22;8184;60.256;18.694;2023-06-26T01:09:23;13.70;99.90
16158;DHT22;8184;60.256;18.694;2023-06-26T01:11:53;13.60;99.90
16158;DHT22;8184;60.256;18.694;2023-06-26T01:14:23;13.50;99.90
16158;DHT22;8184;60.256;18.694;2023-06-26T01:16:51;13.50;99.90
16158;DHT22;8184;60.256;18.694;2023-06-26T01:19:24;13.50;99.90
16158;DHT22;8184;60.256;18.694;2023-06-26T01:21:54;13.50;99.90
16158;DHT22;8184;60.256;18.694;2023-06-26T01:24:26;13.50;99.90
16158;DHT22;8184;60.256;18.694;2023-06-26T01:27:01;13.60;99.90
16158;DHT22;8184;60.256;18.694;2023-06-26T01:29:32;13.70;99.90
16158;DHT22;8184;60.256;18.694;2023-06-26T01:32:03;13.50;99.90
16158;DHT22;8184;60.256;18.694;2023-06-26T01:34:32;13.40;99.90
16158;DHT22;8184;60.256;18.694;2023-06-26T01:37:01;13.50;99.90
16158;DHT22;8184;60.256;18.694;2023-06-26T01:39:29;13.60;99.90
16158;DHT22;8184;60.256;18.694;2023-06-26T01:41:57;13.60;99.90
16158;DHT22;8184;60.256;18.694;2023-06-26T01:44:28;13.40;99.90
16158;DHT22;8184;60.256;18.694;2023-06-26T01:46:58;13.50;99.90
16158;DHT22;8184;60.256;18.694;2023-06-26T01:49:35;13.60;99.90
16158;DHT22;8184;60.256;18.694;2023-06-26T01:52:07;13.60;99.90
16158;DHT22;8184;60.256;18.694;2023-06-26T01:54:42;13.60;99.90
16158;DHT22;8184;60.256;18.694;2023-06-26T01:57:12;13.50;99.90
16158;DHT22;8184;60.256;18.694;2023-06-26T01:59:44;13.60;99.90
16158;DHT22;8184;60.256;18.694;2023-06-26T02:02:13;13.70;99.90
16158;DHT22;8184;60.256;18.694;2023-06-26T02:04:42;13.60;99.90
16158;DHT22;8184;60.256;18.694;2023-06-26T02:07:10;13.50;99.90
16158;DHT22;8184;60.256;18.694;2023-06-26T02:09:38;13.50;99.90
16158;DHT22;8184;60.256;18.694;2023-06-26T02:12:07;13.50;99.90
16158;DHT22;8184;60.256;18.694;2023-06-26T02:14:35;13.40;99.90
16158;DHT22;8184;60.256;18.694;2023-06-26T02:17:05;13.40;99.90
16158;DHT22;8184;60.256;18.694;2023-06-26T02:19:35;13.40;99.90
16158;DHT22;8184;60.256;18.694;2023-06-26T02:22:04;13.40;99.90
16158;DHT22;8184;60.256;18.694;2023-06-26T02:24:38;13.60;99.90
16158;DHT22;8184;60.256;18.694;2023-06-26T02:27:07;13.50;99.90
16158;DHT22;8184;60.256;18.694;2023-06-26T02:29:35;13.40;99.90
16158;DHT22;8184;60.256;18.694;2023-06-26T02:32:07;13.40;99.90
16158;DHT22;8184;60.256;18.694;2023-06-26T02:34:36;13.50;99.90
16158;DHT22;8184;60.256;18.694;2023-06-26T02:37:04;13.60;99.90
16158;DHT22;8184;60.256;18.694;2023-06-26T02:39:34;13.40;99.90
16158;DHT22;8184;60.256;18.694;2023-06-26T02:42:03;13.60;99.90
16158;DHT22;8184;60.256;18.694;2023-06-26T02:44:31;13.70;99.90
16158;DHT22;8184;60.256;18.694;2023-06-26T02:47:00;13.80;99.90
16158;DHT22;8184;60.256;18.694;2023-06-26T02:49:29;14.00;99.90
16158;DHT22;8184;60.256;18.694;2023-06-26T02:52:00;14.40;99.90
16158;DHT22;8184;60.256;18.694;2023-06-26T02:54:28;15.00;99.90
16158;DHT22;8184;60.256;18.694;2023-06-26T02:56:56;15.40;99.90
16158;DHT22;8184;60.256;18.694;2023-06-26T02:59:30;15.50;99.90
16158;DHT22;8184;60.256;18.694;2023-06-26T03:01:58;15.90;99.90
16158;DHT22;8184;60.256;18.694;2023-06-26T03:04:26;16.00;99.90
16158;DHT22;8184;60.256;18.694;2023-06-26T03:06:59;16.60;99.90
16158;DHT22;8184;60.256;18.694;2023-06-26T03:09:28;17.00;99.90
16158;DHT22;8184;60.256;18.694;2023-06-26T03:11:59;17.40;99.90
16158;DHT22;8184;60.256;18.694;2023-06-26T03:14:28;17.50;99.90
16158;DHT22;8184;60.256;18.694;2023-06-26T03:16:57;17.40;99.90
16158;DHT22;8184;60.256;18.694;2023-06-26T03:19:30;18.00;99.90
16158;DHT22;8184;60.256;18.694;2023-06-26T03:21:59;18.30;99.90
16158;DHT22;8184;60.256;18.694;2023-06-26T03:24:27;18.20;99.90
16158;DHT22;8184;60.256;18.694;2023-06-26T03:26:56;18.00;99.90
16158;DHT22;8184;60.256;18.694;2023-06-26T03:29:24;18.50;99.90
16158;DHT22;8184;60.256;18.694;2023-06-26T03:31:52;18.70;99.90
16158;DHT22;8184;60.256;18.694;2023-06-26T03:34:20;19.40;99.90
16158;DHT22;8184;60.256;18.694;2023-06-26T03:36:51;19.60;99.90
16158;DHT22;8184;60.256;18.694;2023-06-26T03:39:20;19.80;99.90
16158;DHT22;8184;60.256;18.694;2023-06-26T03:41:49;19.10;99.90
16158;DHT22;8184;60.256;18.694;2023-06-26T03:44:17;19.40;99.90
16158;DHT22;8184;60.256;18.694;2023-06-26T03:46:45;19.60;99.90
16158;DHT22;8184;60.256;18.694;2023-06-26T03:49:14;19.90;99.90
16158;DHT22;8184;60.256;18.694;2023-06-26T03:51:42;19.60;99.90
16158;DHT22;8184;60.256;18.694;2023-06-26T03:54:12;19.70;99.90
16158;DHT22;8184;60.256;18.694;2023-06-26T03:56:41;19.40;99.90
16158;DHT22;8184;60.256;18.694;2023-06-26T03:59:12;19.00;99.90
16158;DHT22;8184;60.256;18.694;2023-06-26T04:01:41;19.30;99.90
16158;DHT22;8184;60.256;18.694;2023-06-26T04:04:09;18.80;99.90
16158;DHT22;8184;60.256;18.694;2023-06-26T04:06:40;19.10;99.90
16158;DHT22;8184;60.256;18.694;2023-06-26T04:09:08;18.60;99.90
16158;DHT22;8184;60.256;18.694;2023-06-26T04:11:36;19.70;99.90
16158;DHT22;8184;60.256;18.694;2023-06-26T04:14:06;20.60;99.90
16158;DHT22;8184;60.256;18.694;2023-06-26T04:16:37;19.40;99.90
16158;DHT22;8184;60.256;18.694;2023-06-26T04:19:06;19.40;99.90
16158;DHT22;8184;60.256;18.694;2023-06-26T04:21:34;19.70;99.90
16158;DHT22;8184;60.256;18.694;2023-06-26T04:24:03;19.80;99.90
16158;DHT22;8184;60.256;18.694;2023-06-26T04:26:32;20.00;99.90
16158;DHT22;8184;60.256;18.694;2023-06-26T04:29:01;20.10;99.90
16158;DHT22;8184;60.256;18.694;2023-06-26T04:31:34;19.20;99.90
16158;DHT22;8184;60.256;18.694;2023-06-26T04:34:02;19.20;99.90
16158;DHT22;8184;60.256;18.694;2023-06-26T04:36:35;18.50;99.90
16158;DHT22;8184;60.256;18.694;2023-06-26T04:39:05;18.50;99.90
16158;DHT22;8184;60.256;18.694;2023-06-26T04:41:34;19.00;99.90
16158;DHT22;8184;60.256;18.694;2023-06-26T04:44:02;19.20;99.90
16158;DHT22;8184;60.256;18.694;2023-06-26T04:46:36;19.40;99.90
16158;DHT22;8184;60.256;18.694;2023-06-26T04:49:08;19.60;99.90
16158;DHT22;8184;60.256;18.694;2023-06-26T04:51:36;19.10;99.90
16158;DHT22;8184;60.256;18.694;2023-06-26T04:54:07;19.70;99.90
16158;DHT22;8184;60.256;18.694;2023-06-26T04:56:36;19.90;99.90
16158;DHT22;8184;60.256;18.694;2023-06-26T04:59:06;19.70;99.90
16158;DHT22;8184;60.256;18.694;2023-06-26T05:01:41;20.30;99.90
16158;DHT22;8184;60.256;18.694;2023-06-26T05:04:11;20.30;99.90
16158;DHT22;8184;60.256;18.694;2023-06-26T05:06:39;19.60;99.90
16158;DHT22;8184;60.256;18.694;2023-06-26T05:09:07;19.40;99.90
16158;DHT22;8184;60.256;18.694;2023-06-26T05:11:35;19.40;99.90
16158;DHT22;8184;60.256;18.694;2023-06-26T05:14:04;20.10;99.90
16158;DHT22;8184;60.256;18.694;2023-06-26T05:16:34;20.00;99.90
16158;DHT22;8184;60.256;18.694;2023-06-26T05:19:03;19.30;99.90
16158;DHT22;8184;60.256;18.694;2023-06-26T05:21:32;19.00;99.90
16158;DHT22;8184;60.256;18.694;2023-06-26T05:24:02;18.80;99.90
16158;DHT22;8184;60.256;18.694;2023-06-26T05:26:30;18.50;99.90
16158;DHT22;8184;60.256;18.694;2023-06-26T05:28:59;19.00;99.90
16158;DHT22;8184;60.256;18.694;2023-06-26T05:31:27;18.80;99.90
16158;DHT22;8184;60.256;18.694;2023-06-26T05:33:56;18.60;99.90
16158;DHT22;8184;60.256;18.694;2023-06-26T05:36:27;19.40;99.90
16158;DHT22;8184;60.256;18.694;2023-06-26T05:38:56;19.10;99.90
16158;DHT22;8184;60.256;18.694;2023-06-26T05:41:24;18.80;99.90
16158;DHT22;8184;60.256;18.694;2023-06-26T05:43:52;18.50;99.90
16158;DHT22;8184;60.256;18.694;2023-06-26T05:46:22;18.50;99.90
16158;DHT22;8184;60.256;18.694;2023-06-26T05:48:50;18.80;99.90
16158;DHT22;8184;60.256;18.694;2023-06-26T05:51:18;19.00;99.90
16158;DHT22;8184;60.256;18.694;2023-06-26T05:53:49;19.30;99.90
16158;DHT22;8184;60.256;18.694;2023-06-26T05:56:18;19.30;99.90
16158;DHT22;8184;60.256;18.694;2023-06-26T05:58:48;19.60;99.90
16158;DHT22;8184;60.256;18.694;2023-06-26T06:01:16;19.70;99.90
16158;DHT22;8184;60.256;18.694;2023-06-26T06:03:44;19.10;99.90
16158;DHT22;8184;60.256;18.694;2023-06-26T06:06:13;18.60;99.90
16158;DHT22;8184;60.256;18.694;2023-06-26T06:08:42;18.80;99.90
16158;DHT22;8184;60.256;18.694;2023-06-26T06:11:14;18.60;99.90
16158;DHT22;8184;60.256;18.694;2023-06-26T06:13:43;18.90;99.90
16158;DHT22;8184;60.256;18.694;2023-06-26T06:16:11;19.70;99.90
16158;DHT22;8184;60.256;18.694;2023-06-26T06:18:39;19.00;99.90
16158;DHT22;8184;60.256;18.694;2023-06-26T06:21:08;19.30;99.90
16158;DHT22;8184;60.256;18.694;2023-06-26T06:23:36;19.70;99.90
16158;DHT22;8184;60.256;18.694;2023-06-26T06:26:05;19.30;99.90
16158;DHT22;8184;60.256;18.694;2023-06-26T06:28:34;18.90;99.90
16158;DHT22;8184;60.256;18.694;2023-06-26T06:31:03;19.50;99.90
16158;DHT22;8184;60.256;18.694;2023-06-26T06:33:31;19.30;99.90
16158;DHT22;8184;60.256;18.694;2023-06-26T06:36:02;19.80;99.90
16158;DHT22;8184;60.256;18.694;2023-06-26T06:38:33;20.00;99.90
16158;DHT22;8184;60.256;18.694;2023-06-26T06:41:02;19.60;99.90
16158;DHT22;8184;60.256;18.694;2023-06-26T06:43:30;19.00;99.90
16158;DHT22;8184;60.256;18.694;2023-06-26T06:46:00;19.20;99.90
16158;DHT22;8184;60.256;18.694;2023-06-26T06:48:29;19.30;99.90
16158;DHT22;8184;60.256;18.694;2023-06-26T06:50:57;19.00;99.90
16158;DHT22;8184;60.256;18.694;2023-06-26T06:53:26;19.20;99.90
16158;DHT22;8184;60.256;18.694;2023-06-26T06:55:54;19.00;99.90
16158;DHT22;8184;60.256;18.694;2023-06-26T06:58:23;19.40;99.90
16158;DHT22;8184;60.256;18.694;2023-06-26T07:00:51;19.70;99.90
16158;DHT22;8184;60.256;18.694;2023-06-26T07:03:21;19.40;99.90
16158;DHT22;8184;60.256;18.694;2023-06-26T07:05:49;19.70;99.90
16158;DHT22;8184;60.256;18.694;2023-06-26T07:08:18;19.70;99.90
16158;DHT22;8184;60.256;18.694;2023-06-26T07:10:46;19.20;99.90
16158;DHT22;8184;60.256;18.694;2023-06-26T07:13:18;18.70;99.90
16158;DHT22;8184;60.256;18.694;2023-06-26T07:15:46;18.60;99.90
16158;DHT22;8184;60.256;18.694;2023-06-26T07:18:15;18.50;99.90
16158;DHT22;8184;60.256;18.694;2023-06-26T07:20:45;18.70;99.90
16158;DHT22;8184;60.256;18.694;2023-06-26T07:23:17;19.10;99.90
16158;DHT22;8184;60.256;18.694;2023-06-26T07:25:45;19.10;99.90
16158;DHT22;8184;60.256;18.694;2023-06-26T07:28:17;19.10;99.90
16158;DHT22;8184;60.256;18.694;2023-06-26T07:30:54;19.00;99.90
16158;DHT22;8184;60.256;18.694;2023-06-26T07:33:24;19.00;99.90
16158;DHT22;8184;60.256;18.694;2023-06-26T07:35:57;19.20;99.90
16158;DHT22;8184;60.256;18.694;2023-06-26T07:38:25;18.40;99.90
16158;DHT22;8184;60.256;18.694;2023-06-26T07:40:53;18.20;99.90
16158;DHT22;8184;60.256;18.694;2023-06-26T07:43:22;18.30;99.90
16158;DHT22;8184;60.256;18.694;2023-06-26T07:45:51;18.20;99.90
16158;DHT22;8184;60.256;18.694;2023-06-26T07:48:23;18.10;99.90
16158;DHT22;8184;60.256;18.694;2023-06-26T07:50:54;18.30;99.90
16158;DHT22;8184;60.256;18.694;2023-06-26T07:53:24;17.60;99.90
16158;DHT22;8184;60.256;18.694;2023-06-26T07:55:52;18.10;99.90
16158;DHT22;8184;60.256;18.694;2023-06-26T07:58:21;17.80;99.90
16158;DHT22;8184;60.256;18.694;2023-06-26T08:00:49;17.70;99.90
16158;DHT22;8184;60.256;18.694;2023-06-26T08:03:18;18.30;99.90
16158;DHT22;8184;60.256;18.694;2023-06-26T08:06:00;17.60;99.90
16158;DHT22;8184;60.256;18.694;2023-06-26T08:08:31;18.30;99.90
16158;DHT22;8184;60.256;18.694;2023-06-26T08:11:02;18.00;99.90
16158;DHT22;8184;60.256;18.694;2023-06-26T08:13:31;18.30;99.90
16158;DHT22;8184;60.256;18.694;2023-06-26T08:15:59;18.40;99.90
16158;DHT22;8184;60.256;18.694;2023-06-26T08:18:28;18.60;99.90
16158;DHT22;8184;60.256;18.694;2023-06-26T08:20:56;18.40;99.90
16158;DHT22;8184;60.256;18.694;2023-06-26T08:23:25;18.40;99.90
16158;DHT22;8184;60.256;18.694;2023-06-26T08:25:54;18.40;99.90
16158;DHT22;8184;60.256;18.694;2023-06-26T08:28:25;18.20;99.90
16158;DHT22;8184;60.256;18.694;2023-06-26T08:30:54;18.20;99.90
16158;DHT22;8184;60.256;18.694;2023-06-26T08:33:22;18.60;99.90
16158;DHT22;8184;60.256;18.694;2023-06-26T08:35:50;18.70;99.90
16158;DHT22;8184;60.256;18.694;2023-06-26T08:38:18;18.60;99.90
16158;DHT22;8184;60.256;18.694;2023-06-26T08:40:48;18.70;99.90
16158;DHT22;8184;60.256;18.694;2023-06-26T08:43:20;18.00;99.90
16158;DHT22;8184;60.256;18.694;2023-06-26T08:45:51;17.60;99.90
16158;DHT22;8184;60.256;18.694;2023-06-26T08:48:20;18.30;99.90
16158;DHT22;8184;60.256;18.694;2023-06-26T08:50:49;17.80;99.90
16158;DHT22;8184;60.256;18.694;2023-06-26T08:53:20;18.60;99.90
16158;DHT22;8184;60.256;18.694;2023-06-26T08:55:49;19.10;99.90
16158;DHT22;8184;60.256;18.694;2023-06-26T08:58:21;19.10;99.90
16158;DHT22;8184;60.256;18.694;2023-06-26T09:00:50;18.40;99.90
16158;DHT22;8184;60.256;18.694;2023-06-26T09:03:18;18.10;99.90
16158;DHT22;8184;60.256;18.694;2023-06-26T09:05:47;18.50;99.90
16158;DHT22;8184;60.256;18.694;2023-06-26T09:08:15;18.20;99.90
16158;DHT22;8184;60.256;18.694;2023-06-26T09:10:45;18.30;99.90
16158;DHT22;8184;60.256;18.694;2023-06-26T09:13:23;18.50;99.90
16158;DHT22;8184;60.256;18.694;2023-06-26T09:15:56;18.40;99.90
16158;DHT22;8184;60.256;18.694;2023-06-26T09:18:27;18.70;99.90
16158;DHT22;8184;60.256;18.694;2023-06-26T09:20:55;18.50;99.90
16158;DHT22;8184;60.256;18.694;2023-06-26T09:23:23;18.80;99.90
16158;DHT22;8184;60.256;18.694;2023-06-26T09:25:52;19.80;99.90
16158;DHT22;8184;60.256;18.694;2023-06-26T09:28:20;18.60;99.90
16158;DHT22;8184;60.256;18.694;2023-06-26T09:30:51;18.10;99.90
16158;DHT22;8184;60.256;18.694;2023-06-26T09:33:21;17.70;99.90
16158;DHT22;8184;60.256;18.694;2023-06-26T09:35:49;18.00;99.90
16158;DHT22;8184;60.256;18.694;2023-06-26T09:38:17;18.30;99.90
16158;DHT22;8184;60.256;18.694;2023-06-26T09:40:48;18.00;99.90
16158;DHT22;8184;60.256;18.694;2023-06-26T09:43:16;18.20;99.90
16158;DHT22;8184;60.256;18.694;2023-06-26T09:45:48;18.40;99.90
16158;DHT22;8184;60.256;18.694;2023-06-26T09:48:17;18.10;99.90
16158;DHT22;8184;60.256;18.694;2023-06-26T09:50:46;18.40;99.90
16158;DHT22;8184;60.256;18.694;2023-06-26T09:53:37;19.50;99.90
16158;DHT22;8184;60.256;18.694;2023-06-26T09:56:06;18.70;99.90
16158;DHT22;8184;60.256;18.694;2023-06-26T09:58:34;18.70;99.90
16158;DHT22;8184;60.256;18.694;2023-06-26T10:01:04;18.10;99.90
16158;DHT22;8184;60.256;18.694;2023-06-26T10:03:35;18.50;99.90
16158;DHT22;8184;60.256;18.694;2023-06-26T10:06:04;18.80;99.90
16158;DHT22;8184;60.256;18.694;2023-06-26T10:08:33;19.00;99.90
16158;DHT22;8184;60.256;18.694;2023-06-26T10:11:02;18.90;99.90
16158;DHT22;8184;60.256;18.694;2023-06-26T10:13:34;18.30;99.90
16158;DHT22;8184;60.256;18.694;2023-06-26T10:16:03;18.00;99.90
16158;DHT22;8184;60.256;18.694;2023-06-26T10:18:36;17.60;99.90
16158;DHT22;8184;60.256;18.694;2023-06-26T10:21:06;17.70;99.90
16158;DHT22;8184;60.256;18.694;2023-06-26T10:23:36;18.30;99.90
16158;DHT22;8184;60.256;18.694;2023-06-26T10:26:06;18.50;99.90
16158;DHT22;8184;60.256;18.694;2023-06-26T10:28:35;19.30;99.90
16158;DHT22;8184;60.256;18.694;2023-06-26T10:31:05;18.50;99.90
16158;DHT22;8184;60.256;18.694;2023-06-26T10:33:37;18.40;99.90
16158;DHT22;8184;60.256;18.694;2023-06-26T10:36:13;18.50;99.90
16158;DHT22;8184;60.256;18.694;2023-06-26T10:38:48;18.40;99.90
16158;DHT22;8184;60.256;18.694;2023-06-26T10:41:19;18.30;99.90
16158;DHT22;8184;60.256;18.694;2023-06-26T10:43:49;18.90;99.90
16158;DHT22;8184;60.256;18.694;2023-06-26T10:46:25;19.30;99.90
16158;DHT22;8184;60.256;18.694;2023-06-26T10:48:59;19.80;99.90
16158;DHT22;8184;60.256;18.694;2023-06-26T10:51:31;19.10;99.90
16158;DHT22;8184;60.256;18.694;2023-06-26T10:54:00;19.30;99.90
16158;DHT22;8184;60.256;18.694;2023-06-26T10:56:40;19.20;99.90
16158;DHT22;8184;60.256;18.694;2023-06-26T10:59:16;19.90;99.90
16158;DHT22;8184;60.256;18.694;2023-06-26T11:01:45;19.00;99.90
16158;DHT22;8184;60.256;18.694;2023-06-26T11:04:18;19.40;99.90
16158;DHT22;8184;60.256;18.694;2023-06-26T11:07:13;19.60;99.90
16158;DHT22;8184;60.256;18.694;2023-06-26T11:09:53;20.60;99.90
16158;DHT22;8184;60.256;18.694;2023-06-26T11:15:10;19.80;99.90
16158;DHT22;8184;60.256;18.694;2023-06-26T11:17:44;20.10;99.90
16158;DHT22;8184;60.256;18.694;2023-06-26T11:20:15;21.10;99.90
16158;DHT22;8184;60.256;18.694;2023-06-26T11:22:46;20.10;99.90
16158;DHT22;8184;60.256;18.694;2023-06-26T11:25:19;20.20;99.90
16158;DHT22;8184;60.256;18.694;2023-06-26T11:27:54;20.50;99.90
16158;DHT22;8184;60.256;18.694;2023-06-26T11:30:26;20.10;99.90
16158;DHT22;8184;60.256;18.694;2023-06-26T11:33:02;19.70;99.90
16158;DHT22;8184;60.256;18.694;2023-06-26T11:35:32;19.70;99.90
16158;DHT22;8184;60.256;18.694;2023-06-26T11:38:01;19.60;99.90
16158;DHT22;8184;60.256;18.694;2023-06-26T11:40:33;19.30;99.90
16158;DHT22;8184;60.256;18.694;2023-06-26T11:43:04;19.60;99.90
16158;DHT22;8184;60.256;18.694;2023-06-26T11:45:32;19.70;99.90
16158;DHT22;8184;60.256;18.694;2023-06-26T11:48:01;18.90;99.90
16158;DHT22;8184;60.256;18.694;2023-06-26T11:50:29;18.80;99.90
16158;DHT22;8184;60.256;18.694;2023-06-26T11:52:59;18.50;99.90
16158;DHT22;8184;60.256;18.694;2023-06-26T11:55:39;19.20;99.90
16158;DHT22;8184;60.256;18.694;2023-06-26T11:58:08;19.90;99.90
16158;DHT22;8184;60.256;18.694;2023-06-26T12:00:40;19.50;99.90
16158;DHT22;8184;60.256;18.694;2023-06-26T12:03:09;19.50;99.90
16158;DHT22;8184;60.256;18.694;2023-06-26T12:05:45;19.40;99.90
16158;DHT22;8184;60.256;18.694;2023-06-26T12:08:26;19.20;99.90
16158;DHT22;8184;60.256;18.694;2023-06-26T12:10:54;19.30;99.90
16158;DHT22;8184;60.256;18.694;2023-06-26T12:13:24;19.00;99.90
16158;DHT22;8184;60.256;18.694;2023-06-26T12:15:52;18.50;99.90
16158;DHT22;8184;60.256;18.694;2023-06-26T12:18:21;18.70;99.90
16158;DHT22;8184;60.256;18.694;2023-06-26T12:20:53;18.40;99.90
16158;DHT22;8184;60.256;18.694;2023-06-26T12:23:22;18.50;99.90
16158;DHT22;8184;60.256;18.694;2023-06-26T12:25:51;17.70;99.90
16158;DHT22;8184;60.256;18.694;2023-06-26T12:28:20;17.60;99.90
16158;DHT22;8184;60.256;18.694;2023-06-26T12:33:32;17.70;99.90
16158;DHT22;8184;60.256;18.694;2023-06-26T12:36:01;17.80;99.90
16158;DHT22;8184;60.256;18.694;2023-06-26T12:38:32;17.90;99.90
16158;DHT22;8184;60.256;18.694;2023-06-26T12:41:02;17.50;99.90
16158;DHT22;8184;60.256;18.694;2023-06-26T12:43:30;17.70;99.90
16158;DHT22;8184;60.256;18.694;2023-06-26T12:45:59;18.40;99.90
16158;DHT22;8184;60.256;18.694;2023-06-26T12:48:37;18.70;99.90
16158;DHT22;8184;60.256;18.694;2023-06-26T12:51:10;18.50;99.90
16158;DHT22;8184;60.256;18.694;2023-06-26T12:53:38;19.70;99.90
16158;DHT22;8184;60.256;18.694;2023-06-26T12:56:11;18.20;99.90
16158;DHT22;8184;60.256;18.694;2023-06-26T12:58:40;17.90;99.90
16158;DHT22;8184;60.256;18.694;2023-06-26T13:01:08;18.20;99.90
16158;DHT22;8184;60.256;18.694;2023-06-26T13:03:41;18.00;99.90
16158;DHT22;8184;60.256;18.694;2023-06-26T13:06:10;18.80;99.90
16158;DHT22;8184;60.256;18.694;2023-06-26T13:08:39;18.60;99.90
16158;DHT22;8184;60.256;18.694;2023-06-26T13:11:07;17.90;99.90
16158;DHT22;8184;60.256;18.694;2023-06-26T13:13:37;17.30;99.90
16158;DHT22;8184;60.256;18.694;2023-06-26T13:16:05;17.20;99.90
16158;DHT22;8184;60.256;18.694;2023-06-26T13:18:33;16.90;99.90
16158;DHT22;8184;60.256;18.694;2023-06-26T13:21:04;17.40;99.90
16158;DHT22;8184;60.256;18.694;2023-06-26T13:23:33;16.70;99.90
16158;DHT22;8184;60.256;18.694;2023-06-26T13:26:01;17.30;99.90
16158;DHT22;8184;60.256;18.694;2023-06-26T13:28:29;17.70;99.90
16158;DHT22;8184;60.256;18.694;2023-06-26T13:30:59;18.40;99.90
16158;DHT22;8184;60.256;18.694;2023-06-26T13:33:28;18.10;99.90
16158;DHT22;8184;60.256;18.694;2023-06-26T13:35:58;18.00;99.90
16158;DHT22;8184;60.256;18.694;2023-06-26T13:38:27;17.40;99.90
16158;DHT22;8184;60.256;18.694;2023-06-26T13:40:55;17.70;99.90
16158;DHT22;8184;60.256;18.694;2023-06-26T13:43:25;17.60;99.90
16158;DHT22;8184;60.256;18.694;2023-06-26T13:45:53;17.70;99.90
16158;DHT22;8184;60.256;18.694;2023-06-26T13:48:23;17.30;99.90
16158;DHT22;8184;60.256;18.694;2023-06-26T13:50:53;18.30;99.90
16158;DHT22;8184;60.256;18.694;2023-06-26T13:53:22;18.30;99.90
16158;DHT22;8184;60.256;18.694;2023-06-26T13:55:50;18.70;99.90
16158;DHT22;8184;60.256;18.694;2023-06-26T13:58:18;18.10;99.90
16158;DHT22;8184;60.256;18.694;2023-06-26T14:00:51;17.90;99.90
16158;DHT22;8184;60.256;18.694;2023-06-26T14:03:20;18.80;99.90
16158;DHT22;8184;60.256;18.694;2023-06-26T14:05:50;19.10;99.90
16158;DHT22;8184;60.256;18.694;2023-06-26T14:08:18;18.40;99.90
16158;DHT22;8184;60.256;18.694;2023-06-26T14:10:46;18.50;99.90
16158;DHT22;8184;60.256;18.694;2023-06-26T14:13:15;18.40;99.90
16158;DHT22;8184;60.256;18.694;2023-06-26T14:15:45;18.10;99.90
16158;DHT22;8184;60.256;18.694;2023-06-26T14:18:14;17.80;99.90
16158;DHT22;8184;60.256;18.694;2023-06-26T14:20:42;18.20;99.90
16158;DHT22;8184;60.256;18.694;2023-06-26T14:23:11;18.90;99.90
16158;DHT22;8184;60.256;18.694;2023-06-26T14:25:40;19.80;99.90
16158;DHT22;8184;60.256;18.694;2023-06-26T14:28:08;19.10;99.90
16158;DHT22;8184;60.256;18.694;2023-06-26T14:30:36;18.80;99.90
16158;DHT22;8184;60.256;18.694;2023-06-26T14:33:08;19.30;99.90
16158;DHT22;8184;60.256;18.694;2023-06-26T14:35:37;19.30;99.90
16158;DHT22;8184;60.256;18.694;2023-06-26T14:38:07;19.50;99.90
16158;DHT22;8184;60.256;18.694;2023-06-26T14:40:37;19.20;99.90
16158;DHT22;8184;60.256;18.694;2023-06-26T14:43:07;18.90;99.90
16158;DHT22;8184;60.256;18.694;2023-06-26T14:45:36;19.70;99.90
16158;DHT22;8184;60.256;18.694;2023-06-26T14:48:06;20.00;99.90
16158;DHT22;8184;60.256;18.694;2023-06-26T14:50:37;20.00;99.90
16158;DHT22;8184;60.256;18.694;2023-06-26T14:53:06;19.70;99.90
16158;DHT22;8184;60.256;18.694;2023-06-26T14:55:34;20.60;99.90
16158;DHT22;8184;60.256;18.694;2023-06-26T14:58:06;19.80;99.90
16158;DHT22;8184;60.256;18.694;2023-06-26T15:00:36;19.80;99.90
16158;DHT22;8184;60.256;18.694;2023-06-26T15:03:04;19.70;99.90
16158;DHT22;8184;60.256;18.694;2023-06-26T15:05:33;20.10;99.90
16158;DHT22;8184;60.256;18.694;2023-06-26T15:08:01;19.70;99.90
16158;DHT22;8184;60.256;18.694;2023-06-26T15:10:29;19.70;99.90
16158;DHT22;8184;60.256;18.694;2023-06-26T15:13:00;20.50;99.90
16158;DHT22;8184;60.256;18.694;2023-06-26T15:15:29;21.10;99.90
16158;DHT22;8184;60.256;18.694;2023-06-26T15:17:58;21.70;99.90
16158;DHT22;8184;60.256;18.694;2023-06-26T15:20:27;21.50;99.90
16158;DHT22;8184;60.256;18.694;2023-06-26T15:22:55;21.40;99.90
16158;DHT22;8184;60.256;18.694;2023-06-26T15:25:25;21.50;99.90
16158;DHT22;8184;60.256;18.694;2023-06-26T15:27:55;21.30;99.90
16158;DHT22;8184;60.256;18.694;2023-06-26T15:30:23;20.30;99.90
16158;DHT22;8184;60.256;18.694;2023-06-26T15:32:53;20.20;99.90
16158;DHT22;8184;60.256;18.694;2023-06-26T15:35:21;20.30;99.90
16158;DHT22;8184;60.256;18.694;2023-06-26T15:37:49;20.80;99.90
16158;DHT22;8184;60.256;18.694;2023-06-26T15:40:18;20.60;99.90
16158;DHT22;8184;60.256;18.694;2023-06-26T15:42:46;21.10;99.90
16158;DHT22;8184;60.256;18.694;2023-06-26T15:45:15;20.50;99.90
16158;DHT22;8184;60.256;18.694;2023-06-26T15:47:44;20.40;99.90
16158;DHT22;8184;60.256;18.694;2023-06-26T15:50:14;20.40;99.90
16158;DHT22;8184;60.256;18.694;2023-06-26T15:52:42;20.70;99.90